createdAt,value
2018-11-22T00:00:05.473Z,90.98
2018-11-22T00:02:35.876Z,90.94
2018-11-22T00:05:06.506Z,90.88
2018-11-22T00:07:36.495Z,90.94
2018-11-22T00:10:07.548Z,91.11
2018-11-22T00:12:38.505Z,90.98
2018-11-22T00:15:12.217Z,90.67
2018-11-22T00:17:42.808Z,90.58
2018-11-22T00:20:13.131Z,90.84
2018-11-22T00:22:43.297Z,90.77
2018-11-22T00:25:14.763Z,90.64
2018-11-22T00:27:45.021Z,90.48
2018-11-22T00:30:17.609Z,90.72
2018-11-22T00:32:47.932Z,90.85
2018-11-22T00:35:18.754Z,90.87
2018-11-22T00:37:49.401Z,90.90
2018-11-22T00:40:21.019Z,90.93
2018-11-22T00:42:51.590Z,90.99
2018-11-22T00:45:23.277Z,91.00
2018-11-22T00:47:53.462Z,91.09
2018-11-22T00:50:23.738Z,91.18
2018-11-22T00:52:54.208Z,90.77
2018-11-22T00:55:26.044Z,90.48
2018-11-22T00:57:56.768Z,90.48
2018-11-22T01:00:28.457Z,90.50
2018-11-22T01:02:58.783Z,90.19
2018-11-22T01:05:29.387Z,89.85
2018-11-22T01:07:59.659Z,89.41
2018-11-22T01:10:30.095Z,89.22
2018-11-22T01:13:01.041Z,88.98
2018-11-22T01:15:31.068Z,88.53
2018-11-22T01:18:01.229Z,88.39
2018-11-22T01:20:31.311Z,88.55
2018-11-22T01:23:01.854Z,88.89
2018-11-22T01:25:32.127Z,89.04
2018-11-22T01:28:02.526Z,89.21
2018-11-22T01:30:32.940Z,89.32
2018-11-22T01:33:03.305Z,89.34
2018-11-22T01:35:33.404Z,89.37
2018-11-22T01:38:03.630Z,89.38
2018-11-22T01:40:33.749Z,89.44
2018-11-22T01:43:03.896Z,89.49
2018-11-22T01:45:34.460Z,89.67
2018-11-22T01:48:04.814Z,89.75
2018-11-22T01:50:35.227Z,89.59
2018-11-22T01:53:05.647Z,89.57
2018-11-22T01:55:35.975Z,89.46
2018-11-22T01:58:06.462Z,89.57
2018-11-22T02:00:36.764Z,89.63
2018-11-22T02:03:07.147Z,89.64
2018-11-22T02:05:37.665Z,89.51
2018-11-22T02:08:07.981Z,89.42
2018-11-22T02:10:38.234Z,89.21
2018-11-22T02:13:08.524Z,89.14
2018-11-22T02:15:38.840Z,89.39
2018-11-22T02:18:09.032Z,89.59
2018-11-22T02:20:39.398Z,89.57
2018-11-22T02:23:09.777Z,89.22
2018-11-22T02:25:40.011Z,89.08
2018-11-22T02:28:10.004Z,89.11
2018-11-22T02:30:40.244Z,89.30
2018-11-22T02:33:10.711Z,89.49
2018-11-22T02:35:40.988Z,89.63
2018-11-22T02:38:11.156Z,89.59
2018-11-22T02:40:41.298Z,89.68
2018-11-22T02:43:11.293Z,89.71
2018-11-22T02:45:41.577Z,89.84
2018-11-22T02:48:12.230Z,89.86
2018-11-22T02:50:42.544Z,89.81
2018-11-22T02:53:12.890Z,89.75
2018-11-22T02:55:42.961Z,89.78
2018-11-22T02:58:13.435Z,89.75
2018-11-22T03:00:45.084Z,89.57
2018-11-22T03:03:16.100Z,89.32
2018-11-22T03:05:46.178Z,89.31
2018-11-22T03:08:16.584Z,89.38
2018-11-22T03:10:46.868Z,89.25
2018-11-22T03:13:19.224Z,89.12
2018-11-22T03:15:49.610Z,89.16
2018-11-22T03:18:19.776Z,89.42
2018-11-22T03:20:49.801Z,89.20
2018-11-22T03:23:20.014Z,89.15
2018-11-22T03:25:50.349Z,88.86
2018-11-22T03:28:20.371Z,88.59
2018-11-22T03:30:50.609Z,88.47
2018-11-22T03:33:20.907Z,88.50
2018-11-22T03:35:51.204Z,88.63
2018-11-22T03:38:21.217Z,88.69
2018-11-22T03:40:51.281Z,88.90
2018-11-22T03:43:24.913Z,88.90
2018-11-22T03:45:55.281Z,88.88
2018-11-22T03:48:25.544Z,89.15
2018-11-22T03:50:55.640Z,89.16
2018-11-22T03:53:25.766Z,89.25
2018-11-22T03:55:55.840Z,89.34
2018-11-22T03:58:26.175Z,89.41
2018-11-22T04:00:56.370Z,89.08
2018-11-22T04:03:26.515Z,89.03
2018-11-22T04:05:56.795Z,89.02
2018-11-22T04:08:27.277Z,89.00
2018-11-22T04:10:57.737Z,88.88
2018-11-22T04:13:28.010Z,88.87
2018-11-22T04:15:58.288Z,88.75
2018-11-22T04:18:28.654Z,88.74
2018-11-22T04:20:58.727Z,88.77
2018-11-22T04:23:28.767Z,88.68
2018-11-22T04:25:59.008Z,88.72
2018-11-22T04:28:29.178Z,88.57
2018-11-22T04:30:59.520Z,88.64
2018-11-22T04:33:29.719Z,88.36
2018-11-22T04:36:00.193Z,88.13
2018-11-22T04:38:30.255Z,87.56
2018-11-22T04:41:00.492Z,87.21
2018-11-22T04:43:30.850Z,87.17
2018-11-22T04:46:01.250Z,87.25
2018-11-22T04:48:31.552Z,87.42
2018-11-22T04:51:01.581Z,87.51
2018-11-22T04:53:31.953Z,87.67
2018-11-22T04:56:02.298Z,87.87
2018-11-22T04:58:32.639Z,88.05
2018-11-22T05:01:02.718Z,88.12
2018-11-22T05:03:33.247Z,87.82
2018-11-22T05:06:03.720Z,87.69
2018-11-22T05:08:33.910Z,87.71
2018-11-22T05:11:04.272Z,87.61
2018-11-22T05:13:34.602Z,87.86
2018-11-22T05:16:04.683Z,88.02
2018-11-22T05:18:34.844Z,87.76
2018-11-22T05:21:04.947Z,87.63
2018-11-22T05:23:34.981Z,87.61
2018-11-22T05:26:05.101Z,87.42
2018-11-22T05:28:35.269Z,87.11
2018-11-22T05:31:05.818Z,87.28
2018-11-22T05:33:36.056Z,87.09
2018-11-22T05:36:06.596Z,87.07
2018-11-22T05:38:36.976Z,87.08
2018-11-22T05:41:07.364Z,87.17
2018-11-22T05:43:37.702Z,87.19
2018-11-22T05:46:08.077Z,86.91
2018-11-22T05:48:38.413Z,86.79
2018-11-22T05:51:08.745Z,86.63
2018-11-22T05:53:38.902Z,86.14
2018-11-22T05:56:09.169Z,85.76
2018-11-22T05:58:39.552Z,86.09
2018-11-22T06:01:09.774Z,86.25
2018-11-22T06:03:40.091Z,86.22
2018-11-22T06:06:10.399Z,86.26
2018-11-22T06:08:40.800Z,86.32
2018-11-22T06:11:11.143Z,86.38
2018-11-22T06:13:41.187Z,86.34
2018-11-22T06:16:11.515Z,85.75
2018-11-22T06:18:41.643Z,85.79
2018-11-22T06:21:11.853Z,85.94
2018-11-22T06:23:42.111Z,86.08
2018-11-22T06:26:12.395Z,85.62
2018-11-22T06:28:42.568Z,85.72
2018-11-22T06:31:12.846Z,85.91
2018-11-22T06:33:43.359Z,85.97
2018-11-22T06:36:13.795Z,85.89
2018-11-22T06:38:44.158Z,85.99
2018-11-22T06:41:14.197Z,85.84
2018-11-22T06:43:44.710Z,85.63
2018-11-22T06:46:14.785Z,85.15
2018-11-22T06:48:44.919Z,84.79
2018-11-22T06:51:15.197Z,84.45
2018-11-22T06:53:45.543Z,84.29
2018-11-22T06:56:15.754Z,84.19
2018-11-22T06:58:46.079Z,83.98
2018-11-22T07:01:16.349Z,83.62
2018-11-22T07:03:46.506Z,83.36
2018-11-22T07:06:16.857Z,83.04
2018-11-22T07:08:47.165Z,81.99
2018-11-22T07:11:17.510Z,81.71
2018-11-22T07:13:47.918Z,81.40
2018-11-22T07:16:18.276Z,81.08
2018-11-22T07:18:48.687Z,81.41
2018-11-22T07:21:19.122Z,82.06
2018-11-22T07:23:49.291Z,82.20
2018-11-22T07:26:19.636Z,82.42
2018-11-22T07:28:49.814Z,82.43
2018-11-22T07:31:20.224Z,81.75
2018-11-22T07:33:50.601Z,81.61
2018-11-22T07:36:20.989Z,81.79
2018-11-22T07:38:51.315Z,81.99
2018-11-22T07:41:21.567Z,81.76
2018-11-22T07:43:51.710Z,81.31
2018-11-22T07:46:22.068Z,81.28
2018-11-22T07:48:52.455Z,81.10
2018-11-22T07:51:22.872Z,80.78
2018-11-22T07:53:53.074Z,80.42
2018-11-22T07:56:23.434Z,80.61
2018-11-22T07:58:53.689Z,80.93
2018-11-22T08:01:23.920Z,80.67
2018-11-22T08:03:54.498Z,80.50
2018-11-22T08:06:24.905Z,80.41
2018-11-22T08:08:55.278Z,80.36
2018-11-22T08:11:25.383Z,80.31
2018-11-22T08:13:55.564Z,80.03
2018-11-22T08:16:25.644Z,80.06
2018-11-22T08:18:55.866Z,79.17
2018-11-22T08:21:26.221Z,78.91
2018-11-22T08:23:56.580Z,79.04
2018-11-22T08:26:26.905Z,78.77
2018-11-22T08:28:57.326Z,77.61
2018-11-22T08:31:27.686Z,78.42
2018-11-22T08:33:58.071Z,78.91
2018-11-22T08:36:28.187Z,79.13
2018-11-22T08:38:58.516Z,78.99
2018-11-22T08:41:28.826Z,78.09
2018-11-22T08:43:59.255Z,77.08
2018-11-22T08:46:29.391Z,77.40
2018-11-22T08:48:59.390Z,78.10
2018-11-22T08:51:29.779Z,78.25
2018-11-22T08:53:59.957Z,77.57
2018-11-22T08:56:30.141Z,77.37
2018-11-22T08:59:00.163Z,76.70
2018-11-22T09:01:30.444Z,76.85
2018-11-22T09:04:00.779Z,76.80
2018-11-22T09:06:31.297Z,75.90
2018-11-22T09:09:01.623Z,74.72
2018-11-22T09:11:31.912Z,75.94
2018-11-22T09:14:02.100Z,75.33
2018-11-22T09:16:32.195Z,75.87
2018-11-22T09:19:02.879Z,76.43
2018-11-22T09:21:33.146Z,76.33
2018-11-22T09:24:03.193Z,75.74
2018-11-22T09:26:33.230Z,74.54
2018-11-22T09:29:03.799Z,74.42
2018-11-22T09:31:34.311Z,72.37
2018-11-22T09:34:04.605Z,73.57
2018-11-22T09:36:34.843Z,74.44
2018-11-22T09:39:07.884Z,75.07
2018-11-22T09:41:38.300Z,75.17
2018-11-22T09:44:10.224Z,75.01
2018-11-22T09:46:40.389Z,74.03
2018-11-22T09:49:10.571Z,73.41
2018-11-22T09:51:40.703Z,73.74
2018-11-22T09:54:10.935Z,74.09
2018-11-22T09:56:41.442Z,72.72
2018-11-22T09:59:11.583Z,73.33
2018-11-22T10:01:41.841Z,73.90
2018-11-22T10:04:12.147Z,73.24
2018-11-22T10:06:42.538Z,73.41
2018-11-22T10:09:13.024Z,73.69
2018-11-22T10:11:43.198Z,74.33
2018-11-22T10:14:13.566Z,75.55
2018-11-22T10:16:44.047Z,76.10
2018-11-22T10:19:14.349Z,76.64
2018-11-22T10:21:44.397Z,76.47
2018-11-22T10:24:14.910Z,76.90
2018-11-22T10:26:45.299Z,77.26
2018-11-22T10:29:15.582Z,77.73
2018-11-22T10:31:45.984Z,77.79
2018-11-22T10:34:16.484Z,77.82
2018-11-22T10:36:46.927Z,78.10
2018-11-22T10:41:46.646Z,78.55
2018-11-22T10:44:16.981Z,78.86
2018-11-22T10:46:47.110Z,79.26
2018-11-22T10:49:17.300Z,79.04
2018-11-22T12:17:52.483Z,79.54
2018-11-22T12:20:22.113Z,79.38
2018-11-22T12:22:53.211Z,79.58
2018-11-22T12:25:23.187Z,79.25
2018-11-22T12:27:53.670Z,79.46
2018-11-22T12:30:23.837Z,80.62
2018-11-22T12:32:58.076Z,79.82
2018-11-22T12:35:32.168Z,80.00
2018-11-22T12:38:06.007Z,79.92
2018-11-22T12:40:34.883Z,80.13
2018-11-22T12:43:03.867Z,81.19
2018-11-22T12:45:33.298Z,80.52
2018-11-22T12:48:02.478Z,80.80
2018-11-22T12:50:31.316Z,80.78
2018-11-22T12:53:00.381Z,81.12
2018-11-22T12:55:29.556Z,80.18
2018-11-22T12:57:58.732Z,80.74
2018-11-22T13:00:27.923Z,81.30
2018-11-22T13:02:56.692Z,81.56
2018-11-22T13:05:25.651Z,81.59
2018-11-22T13:07:54.559Z,81.84
2018-11-22T13:10:23.635Z,81.92
2018-11-22T13:12:52.787Z,81.45
2018-11-22T13:15:22.490Z,81.79
2018-11-22T13:17:51.637Z,81.53
2018-11-22T13:20:21.803Z,82.33
2018-11-22T13:22:50.818Z,82.05
2018-11-22T13:25:21.490Z,82.51
2018-11-22T13:27:50.725Z,82.19
2018-11-22T13:30:22.431Z,82.11
2018-11-22T13:32:52.031Z,82.60
2018-11-22T13:35:21.479Z,81.56
2018-11-22T13:37:51.719Z,82.07
2018-11-22T13:40:21.034Z,82.58
2018-11-22T13:42:50.903Z,82.61
2018-11-22T13:45:22.320Z,82.92
2018-11-22T13:47:52.426Z,82.55
2018-11-22T13:50:23.839Z,82.51
2018-11-22T13:52:54.382Z,82.15
2018-11-22T13:55:23.907Z,82.39
2018-11-22T13:57:52.969Z,82.00
2018-11-22T14:00:23.690Z,81.27
2018-11-22T14:02:54.248Z,82.65
2018-11-22T14:05:23.227Z,81.73
2018-11-22T14:07:52.597Z,81.77
2018-11-22T14:10:21.815Z,81.95
2018-11-22T14:12:50.886Z,81.45
2018-11-22T14:15:21.954Z,81.04
2018-11-22T14:17:52.110Z,81.31
2018-11-22T14:20:23.530Z,81.10
2018-11-22T14:22:52.835Z,82.02
2018-11-22T14:25:21.971Z,81.50
2018-11-22T14:27:51.558Z,81.05
2018-11-22T14:30:22.143Z,81.89
2018-11-22T14:32:52.034Z,81.70
2018-11-22T14:35:21.787Z,81.54
2018-11-22T14:37:50.599Z,81.79
2018-11-22T14:40:22.368Z,81.85
2018-11-22T14:42:52.214Z,81.90
2018-11-22T14:45:22.650Z,82.43
2018-11-22T14:47:52.264Z,81.25
2018-11-22T14:50:22.802Z,82.15
2018-11-22T14:52:55.935Z,82.17
2018-11-22T14:55:25.041Z,81.87
2018-11-22T14:57:54.065Z,81.54
2018-11-22T15:00:23.223Z,81.22
2018-11-22T15:02:52.546Z,81.24
2018-11-22T15:05:21.794Z,81.68
2018-11-22T15:07:50.757Z,82.35
2018-11-22T15:10:19.978Z,81.32
2018-11-22T15:12:49.544Z,81.88
2018-11-22T15:15:22.849Z,81.26
2018-11-22T15:17:52.191Z,81.31
2018-11-22T15:20:21.898Z,81.60
2018-11-22T15:22:52.127Z,81.59
2018-11-22T15:25:22.651Z,81.19
2018-11-22T15:27:51.802Z,81.79
2018-11-22T15:30:23.258Z,82.28
2018-11-22T15:32:52.483Z,82.05
2018-11-22T15:35:22.858Z,82.48
2018-11-22T15:37:52.083Z,82.11
2018-11-22T15:40:22.398Z,82.20
2018-11-22T15:42:53.651Z,81.96
2018-11-22T15:45:23.976Z,82.22
2018-11-22T15:47:53.123Z,81.94
2018-11-22T15:50:23.535Z,82.65
2018-11-22T15:52:52.581Z,81.29
2018-11-22T15:55:22.190Z,81.51
2018-11-22T15:57:52.672Z,81.65
2018-11-22T16:00:23.720Z,81.96
2018-11-22T16:02:53.157Z,82.12
2018-11-22T16:05:23.023Z,81.85
2018-11-22T16:07:52.084Z,81.21
2018-11-22T16:10:26.773Z,81.39
2018-11-22T16:12:56.016Z,81.63
2018-11-22T16:15:45.946Z,81.78
2018-11-22T16:18:15.061Z,81.67
2018-11-22T16:20:44.222Z,81.64
2018-11-22T16:23:13.374Z,81.41
2018-11-22T16:25:42.508Z,81.87
2018-11-22T16:28:11.548Z,81.59
2018-11-22T16:30:41.569Z,82.11
2018-11-22T16:33:10.675Z,82.29
2018-11-22T16:35:39.658Z,82.25
2018-11-22T16:38:08.993Z,82.18
2018-11-22T16:40:38.035Z,82.37
2018-11-22T16:43:07.562Z,82.85
2018-11-22T16:45:37.728Z,82.29
2018-11-22T16:48:08.756Z,82.56
2018-11-22T16:50:38.926Z,81.68
2018-11-22T16:53:08.288Z,81.79
2018-11-22T16:55:37.246Z,81.47
2018-11-22T16:58:07.019Z,81.39
2018-11-22T17:00:38.189Z,81.45
2018-11-22T17:03:09.727Z,81.26
2018-11-22T17:05:39.129Z,80.33
2018-11-22T17:08:08.658Z,80.99
2018-11-22T17:10:38.204Z,81.41
2018-11-22T17:13:07.525Z,81.66
2018-11-22T17:15:37.984Z,81.95
2018-11-22T17:18:08.184Z,81.89
2018-11-22T17:20:37.236Z,82.08
2018-11-22T17:23:07.047Z,82.01
2018-11-22T17:25:36.743Z,81.64
2018-11-22T17:28:06.924Z,81.91
2018-11-22T17:30:38.726Z,81.46
2018-11-22T17:33:08.147Z,81.10
2018-11-22T17:35:37.247Z,81.24
2018-11-22T17:38:07.676Z,82.19
2018-11-22T17:40:38.329Z,82.82
2018-11-22T17:43:09.083Z,83.03
2018-11-22T17:45:40.497Z,83.17
2018-11-22T17:48:09.900Z,82.98
2018-11-22T17:50:41.017Z,82.76
2018-11-22T17:53:10.722Z,83.08
2018-11-22T17:55:39.958Z,82.25
2018-11-22T17:58:08.884Z,82.53
2018-11-22T18:00:43.114Z,81.65
2018-11-22T18:03:12.000Z,81.99
2018-11-22T18:05:40.850Z,82.29
2018-11-22T18:08:09.939Z,82.73
2018-11-22T18:10:40.643Z,82.90
2018-11-22T18:13:09.670Z,82.58
2018-11-22T18:15:44.778Z,81.59
2018-11-22T18:18:14.338Z,81.56
2018-11-22T18:20:43.525Z,82.56
2018-11-22T18:23:12.761Z,81.69
2018-11-22T18:25:41.811Z,82.28
2018-11-22T18:28:10.987Z,82.13
2018-11-22T18:30:40.313Z,83.10
2018-11-22T18:33:09.446Z,83.01
2018-11-22T18:35:38.699Z,83.82
2018-11-22T18:38:07.782Z,83.89
2018-11-22T18:40:38.308Z,83.20
2018-11-22T18:43:07.447Z,83.08
2018-11-22T18:45:38.083Z,82.46
2018-11-22T18:48:08.642Z,82.36
2018-11-22T18:50:38.078Z,82.40
2018-11-22T18:53:07.232Z,83.58
2018-11-22T18:55:36.260Z,83.78
2018-11-22T18:58:05.831Z,83.69
2018-11-22T19:00:36.230Z,83.52
2018-11-22T19:03:07.135Z,83.88
2018-11-22T19:05:36.378Z,84.26
2018-11-22T19:08:05.242Z,84.13
2018-11-22T19:10:35.926Z,82.97
2018-11-22T19:13:06.593Z,82.10
2018-11-22T19:15:37.086Z,81.49
2018-11-22T19:18:06.927Z,81.97
2018-11-22T19:20:37.605Z,82.64
2018-11-22T19:23:07.752Z,82.85
2018-11-22T19:25:36.990Z,81.89
2018-11-22T19:28:06.822Z,81.71
2018-11-22T19:30:38.639Z,81.93
2018-11-22T19:33:08.833Z,82.40
2018-11-22T19:35:46.756Z,82.86
2018-11-22T19:38:16.115Z,82.54
2018-11-22T19:40:45.200Z,82.70
2018-11-22T19:43:14.345Z,81.65
2018-11-22T19:45:45.165Z,81.75
2018-11-22T19:48:15.186Z,81.81
2018-11-22T19:50:44.396Z,80.71
2018-11-22T19:53:14.656Z,81.46
2018-11-22T19:55:43.997Z,81.59
2018-11-22T19:58:14.448Z,82.58
2018-11-22T20:00:43.435Z,82.82
2018-11-22T20:03:12.382Z,83.72
2018-11-22T20:05:41.860Z,83.10
2018-11-22T20:08:12.548Z,83.65
2018-11-22T20:10:42.699Z,84.21
2018-11-22T20:13:11.792Z,84.50
2018-11-22T20:15:40.668Z,84.14
2018-11-22T20:18:10.735Z,84.37
2018-11-22T20:20:39.856Z,83.92
2018-11-22T20:23:09.011Z,83.49
2018-11-22T20:25:38.042Z,83.41
2018-11-22T20:28:07.490Z,83.37
2018-11-22T20:30:39.268Z,83.34
2018-11-22T20:33:08.231Z,84.04
2018-11-22T20:35:37.323Z,83.74
2018-11-22T20:38:06.446Z,84.62
2018-11-22T20:40:35.776Z,84.20
2018-11-22T20:43:05.105Z,84.44
2018-11-22T20:45:36.917Z,85.06
2018-11-22T20:48:04.877Z,85.07
2018-11-22T20:50:34.443Z,85.80
2018-11-22T20:53:03.546Z,85.83
2018-11-22T20:55:36.881Z,86.63
2018-11-22T20:58:06.646Z,86.30
2018-11-22T21:00:37.224Z,86.61
2018-11-22T21:03:06.339Z,86.94
2018-11-22T21:05:35.459Z,86.45
2018-11-22T21:08:04.591Z,86.19
2018-11-22T21:10:34.351Z,86.30
2018-11-22T21:13:03.375Z,85.82
2018-11-22T21:15:33.410Z,85.54
2018-11-22T21:18:03.987Z,86.00
2018-11-22T21:20:35.498Z,86.23
2018-11-22T21:23:04.712Z,85.69
2018-11-22T21:25:33.763Z,85.21
2018-11-22T21:28:02.680Z,85.21
2018-11-22T21:30:34.987Z,85.04
2018-11-22T21:33:04.182Z,84.93
2018-11-22T21:35:33.587Z,85.51
2018-11-22T21:38:03.521Z,84.87
2018-11-22T21:40:33.293Z,85.00
2018-11-22T21:43:02.480Z,84.78
2018-11-22T21:45:32.495Z,84.80
2018-11-22T21:48:01.641Z,84.70
2018-11-22T21:50:30.794Z,84.04
2018-11-22T21:53:00.064Z,83.64
2018-11-22T21:55:30.035Z,83.75
2018-11-22T21:57:59.870Z,83.52
2018-11-22T22:00:31.614Z,84.56
2018-11-22T22:03:02.047Z,84.71
2018-11-22T22:05:31.314Z,84.49
2018-11-22T22:08:00.493Z,84.90
2018-11-22T22:10:29.728Z,85.01
2018-11-22T22:12:58.980Z,84.42
2018-11-22T22:15:29.502Z,84.73
2018-11-22T22:17:58.404Z,84.21
2018-11-22T22:20:31.969Z,84.06
2018-11-22T22:23:01.102Z,84.51
2018-11-22T22:25:30.402Z,84.60
2018-11-22T22:27:59.758Z,84.63
2018-11-22T22:30:30.222Z,84.80
2018-11-22T22:33:00.579Z,84.66
2018-11-22T22:35:29.647Z,84.61
2018-11-22T22:37:58.735Z,84.90
2018-11-22T22:40:28.742Z,85.05
2018-11-22T22:42:58.327Z,84.92
2018-11-22T22:45:28.575Z,85.23
2018-11-22T22:47:57.842Z,85.11
2018-11-22T22:50:28.026Z,84.99
2018-11-22T22:52:58.264Z,85.13
2018-11-22T22:55:27.842Z,84.47
2018-11-22T22:57:56.936Z,83.57
2018-11-22T23:00:32.152Z,83.24
2018-11-22T23:03:02.827Z,83.67
2018-11-22T23:05:32.304Z,83.86
2018-11-22T23:08:01.472Z,85.13
2018-11-22T23:10:30.636Z,85.57
2018-11-22T23:13:00.091Z,84.93
2018-11-22T23:15:30.197Z,85.07
2018-11-22T23:17:59.423Z,84.21
2018-11-22T23:20:30.559Z,84.81
2018-11-22T23:22:59.662Z,85.01
2018-11-22T23:25:29.394Z,85.77
2018-11-22T23:27:58.491Z,86.24
2018-11-22T23:30:30.923Z,86.55
2018-11-22T23:33:02.475Z,85.53
2018-11-22T23:35:31.161Z,85.08
2018-11-22T23:38:00.471Z,85.83
2018-11-22T23:40:30.630Z,84.99
2018-11-22T23:42:59.826Z,85.86
2018-11-22T23:45:30.334Z,85.17
2018-11-22T23:47:59.232Z,85.51
2018-11-22T23:50:29.718Z,85.98
2018-11-22T23:52:59.494Z,85.29
2018-11-22T23:55:28.762Z,84.79
2018-11-22T23:57:57.830Z,85.02
